Time;durP1;ratioP1;P1;durP2;ratioP2;P2;SDS_P1;SDS_P2;PMS_P1;PMS_P2;Temp;Humidity;BMP_temperature;BMP_pressure;BME280_temperature;BME280_humidity;BME280_pressure;Samples;Min_cycle;Max_cycle;Signal;HPM_P1;HPM_P2
2024/03/07 00:02:17;;;;;;;26.70;14.90;;;;;;;3.51;83.60;101685.27;106426;1265;101361;-80
2024/03/07 00:05:03;;;;;;;22.90;14.20;;;;;;;3.50;83.49;101688.31;106537;1265;100428;-80
2024/03/07 00:07:48;;;;;;;26.70;15.20;;;;;;;3.47;83.05;101688.73;106370;1266;99250;-81
2024/03/07 00:10:36;;;;;;;24.40;14.80;;;;;;;3.43;83.11;101688.69;106531;1265;98068;-81
2024/03/07 00:13:22;;;;;;;24.20;15.30;;;;;;;3.38;82.93;101685.69;106603;1259;98508;-80
2024/03/07 00:16:08;;;;;;;27.10;14.30;;;;;;;3.33;83.01;101682.70;106583;1263;101393;-81
2024/03/07 00:18:55;;;;;;;28.50;15.80;;;;;;;3.29;82.81;101679.31;106568;1265;100091;-80
2024/03/07 00:21:41;;;;;;;30.20;16.30;;;;;;;3.23;83.02;101682.23;106474;1264;98061;-80
2024/03/07 00:24:29;;;;;;;28.10;15.50;;;;;;;3.18;83.05;101684.02;106508;1261;95870;-80
2024/03/07 00:27:15;;;;;;;29.40;16.50;;;;;;;3.12;83.00;101683.42;106640;1259;95836;-81
2024/03/07 00:30:02;;;;;;;26.30;16.10;;;;;;;3.05;82.99;101680.58;106584;1265;102655;-81
2024/03/07 00:32:48;;;;;;;28.10;16.90;;;;;;;2.99;83.00;101680.31;106602;1264;100136;-80
2024/03/07 00:35:34;;;;;;;28.30;16.70;;;;;;;2.95;83.36;101682.20;106566;1265;97702;-80
2024/03/07 00:38:20;;;;;;;29.90;16.30;;;;;;;2.92;83.33;101682.73;106573;1260;97987;-80
2024/03/07 00:41:06;;;;;;;26.30;15.80;;;;;;;2.88;83.31;101681.84;106685;1264;97150;-81
2024/03/07 00:43:52;;;;;;;29.00;17.40;;;;;;;2.84;83.23;101679.85;106440;1260;101558;-80
2024/03/07 00:46:38;;;;;;;27.00;16.10;;;;;;;2.78;83.26;101680.05;106447;1261;99089;-81
2024/03/07 00:49:24;;;;;;;25.90;15.20;;;;;;;2.75;83.23;101677.67;106451;1261;98422;-81
2024/03/07 00:52:10;;;;;;;29.10;16.30;;;;;;;2.71;83.05;101676.54;106345;1261;96314;-80
2024/03/07 00:54:55;;;;;;;25.30;16.00;;;;;;;2.66;83.08;101678.33;106586;1261;97897;-80
2024/03/07 00:57:41;;;;;;;28.00;16.50;;;;;;;2.60;83.32;101676.63;106495;1266;101420;-80
2024/03/07 01:00:28;;;;;;;31.70;17.40;;;;;;;2.55;83.42;101677.36;106646;1261;100367;-81
2024/03/07 01:03:13;;;;;;;29.90;16.90;;;;;;;2.50;83.42;101677.20;106440;1265;99104;-81
2024/03/07 01:06:00;;;;;;;32.30;16.40;;;;;;;2.44;83.35;101676.95;106312;1264;97922;-80
2024/03/07 01:08:45;;;;;;;27.90;17.50;;;;;;;2.39;83.46;101676.08;106431;1264;98413;-80
2024/03/07 01:11:31;;;;;;;30.80;17.90;;;;;;;2.32;83.51;101675.14;106367;1264;101417;-80
2024/03/07 01:14:17;;;;;;;26.50;17.50;;;;;;;2.24;83.65;101674.14;106371;1266;99109;-80
2024/03/07 01:17:03;;;;;;;35.30;18.60;;;;;;;2.16;83.62;101672.75;106482;1260;98056;-80
2024/03/07 01:19:48;;;;;;;30.40;18.10;;;;;;;2.08;83.78;101669.96;106509;1265;97969;-81
2024/03/07 01:22:34;;;;;;;34.90;19.00;;;;;;;2.02;83.99;101672.69;106546;1261;101487;-80
2024/03/07 01:25:21;;;;;;;31.90;18.30;;;;;;;1.96;84.08;101674.19;106465;1260;101376;-80
2024/03/07 01:28:07;;;;;;;35.50;18.80;;;;;;;1.88;84.03;101674.74;106450;1264;99595;-80
2024/03/07 01:30:53;;;;;;;34.50;19.30;;;;;;;1.79;84.34;101674.80;106415;1261;99362;-81
2024/03/07 01:33:39;;;;;;;32.00;17.50;;;;;;;1.71;84.34;101676.25;106355;1264;97976;-79
2024/03/07 01:36:24;;;;;;;30.30;18.20;;;;;;;1.65;84.56;101678.10;106440;1267;98626;-80
2024/03/07 01:39:10;;;;;;;33.30;18.60;;;;;;;1.56;84.73;101678.52;106468;1264;101384;-81
2024/03/07 01:41:55;;;;;;;32.60;19.10;;;;;;;1.46;84.95;101677.73;106650;1261;100529;-80
2024/03/07 01:44:43;;;;;;;32.80;18.80;;;;;;;1.41;85.08;101678.30;106502;1260;98673;-81
2024/03/07 01:47:30;;;;;;;34.60;18.10;;;;;;;1.34;85.17;101678.43;106643;1260;97753;-81
2024/03/07 01:50:17;;;;;;;33.90;18.60;;;;;;;1.29;85.57;101679.83;106445;1264;99110;-80
2024/03/07 01:53:03;;;;;;;34.80;19.20;;;;;;;1.22;85.61;101681.64;106368;1261;437165;-80
2024/03/07 01:55:50;;;;;;;33.20;18.70;;;;;;;1.16;85.84;101682.93;106634;1261;99171;-80
2024/03/07 01:58:36;;;;;;;36.00;18.40;;;;;;;1.11;86.02;101685.54;106538;1264;97879;-80
2024/03/07 02:01:22;;;;;;;33.30;18.80;;;;;;;1.06;86.23;101686.60;106523;1260;96658;-81
2024/03/07 02:04:08;;;;;;;36.10;19.10;;;;;;;1.01;86.39;101684.64;106592;1261;96239;-79
2024/03/07 02:06:55;;;;;;;35.00;19.20;;;;;;;0.98;86.50;101683.84;106548;1260;102814;-80
2024/03/07 02:09:41;;;;;;;29.80;18.80;;;;;;;0.94;86.66;101684.74;106545;1264;99307;-80
2024/03/07 02:12:27;;;;;;;33.60;18.50;;;;;;;0.91;86.74;101682.16;106494;1261;97910;-80
2024/03/07 02:15:13;;;;;;;33.90;18.60;;;;;;;0.85;86.94;101681.96;106444;1264;96235;-79
2024/03/07 02:17:59;;;;;;;35.80;19.30;;;;;;;0.79;87.02;101676.26;106564;1260;98479;-81
2024/03/07 02:20:45;;;;;;;35.00;19.20;;;;;;;0.74;87.37;101677.23;106474;1260;101444;-80
2024/03/07 02:23:32;;;;;;;32.60;18.60;;;;;;;0.73;87.53;101675.77;106511;1260;100456;-81
2024/03/07 02:26:18;;;;;;;32.70;18.60;;;;;;;0.69;87.65;101675.66;106502;1261;99899;-80
2024/03/07 02:29:04;;;;;;;33.90;19.00;;;;;;;0.64;87.81;101675.77;106566;1264;97881;-80
2024/03/07 02:31:51;;;;;;;34.70;18.80;;;;;;;0.60;87.93;101678.69;106563;1260;97495;-81
2024/03/07 02:34:37;;;;;;;30.40;17.80;;;;;;;0.55;88.05;101678.48;106397;1261;102222;-82
2024/03/07 02:37:22;;;;;;;34.50;18.80;;;;;;;0.50;88.20;101682.64;106615;1263;100607;-80
2024/03/07 02:40:08;;;;;;;37.10;20.00;;;;;;;0.44;88.41;101685.17;106484;1261;99058;-80
2024/03/07 02:42:54;;;;;;;35.10;19.60;;;;;;;0.39;88.56;101684.98;106502;1264;97911;-80
2024/03/07 02:45:40;;;;;;;39.80;19.40;;;;;;;0.34;88.75;101684.20;106579;1264;97903;-80
2024/03/07 02:48:25;;;;;;;38.90;21.10;;;;;;;0.29;89.03;101681.20;106541;1261;101438;-80
2024/03/07 02:51:11;;;;;;;33.60;20.00;;;;;;;0.26;89.21;101683.34;106452;1264;100162;-81
2024/03/07 02:53:57;;;;;;;39.60;19.10;;;;;;;0.20;89.30;101682.11;106407;1260;98922;-80
2024/03/07 02:56:43;;;;;;;35.50;19.60;;;;;;;0.14;89.48;101680.91;106533;1260;98050;-79
2024/03/07 02:59:29;;;;;;;36.80;21.40;;;;;;;0.09;89.76;101679.26;106604;1264;97782;-80
2024/03/07 03:02:14;;;;;;;34.80;19.70;;;;;;;0.07;90.03;101681.86;106459;1264;102706;-81
2024/03/07 03:05:00;;;;;;;35.90;19.20;;;;;;;0.05;90.15;101682.18;106437;1261;99195;-80
2024/03/07 03:07:52;;;;;;;34.20;19.40;;;;;;;0.01;90.31;101678.56;106439;1261;97785;-81
2024/03/07 03:10:38;;;;;;;31.20;17.70;;;;;;;-0.03;90.41;101682.44;106475;1260;97878;-81
2024/03/07 03:13:27;;;;;;;39.40;21.40;;;;;;;-0.05;90.56;101682.41;106494;1260;98473;-81
2024/03/07 03:16:12;;;;;;;37.70;20.00;;;;;;;-0.06;90.78;101681.78;106475;1260;103131;-80
2024/03/07 03:18:58;;;;;;;32.80;19.10;;;;;;;-0.07;90.93;101684.98;106540;1261;99142;-82
2024/03/07 03:21:44;;;;;;;34.30;19.30;;;;;;;-0.08;90.93;101686.44;106296;1261;97964;-80
2024/03/07 03:24:30;;;;;;;37.20;18.40;;;;;;;-0.09;91.16;101690.07;106350;1265;97960;-81
2024/03/07 03:27:16;;;;;;;33.40;17.70;;;;;;;-0.13;91.26;101693.09;106480;1260;96157;-82
2024/03/07 03:30:02;;;;;;;35.60;18.70;;;;;;;-0.18;91.39;101690.58;106477;1264;102710;-82
2024/03/07 03:32:49;;;;;;;33.00;18.30;;;;;;;-0.22;91.47;101693.46;106356;1260;100063;-81
2024/03/07 03:35:36;;;;;;;37.20;19.20;;;;;;;-0.28;91.67;101691.52;106376;1260;98050;-81
2024/03/07 03:38:25;;;;;;;36.60;19.00;;;;;;;-0.31;91.95;101692.95;106364;1260;97996;-81
2024/03/07 03:41:15;;;;;;;37.50;19.30;;;;;;;-0.34;92.07;101690.84;106431;1260;96034;-80
2024/03/07 03:44:03;;;;;;;37.10;19.50;;;;;;;-0.37;92.25;101694.55;105932;1260;101407;-80
2024/03/07 03:46:49;;;;;;;40.30;19.20;;;;;;;-0.39;92.38;101694.52;108187;1260;100430;-82
2024/03/07 03:49:34;;;;;;;36.20;19.20;;;;;;;-0.41;92.45;101691.30;106849;1260;99024;-80
2024/03/07 03:52:20;;;;;;;42.20;20.50;;;;;;;-0.41;92.67;101692.53;106451;1259;98141;-80
2024/03/07 03:55:06;;;;;;;35.90;19.50;;;;;;;-0.43;92.73;101694.54;106370;1260;99658;-81
2024/03/07 03:57:53;;;;;;;36.50;18.10;;;;;;;-0.45;92.81;101694.48;106479;1264;102334;-80
2024/03/07 04:00:39;;;;;;;34.90;18.00;;;;;;;-0.48;92.84;101694.12;106118;1260;99183;-79
2024/03/07 04:03:25;;;;;;;36.10;20.10;;;;;;;-0.48;93.06;101697.34;106142;1260;98556;-80
2024/03/07 04:06:12;;;;;;;38.50;18.70;;;;;;;-0.51;93.12;101701.69;105783;1264;97973;-80
2024/03/07 04:08:58;;;;;;;37.20;18.80;;;;;;;-0.54;93.17;101700.30;106392;1259;99567;-81
2024/03/07 04:11:45;;;;;;;36.50;18.00;;;;;;;-0.59;93.46;101697.44;106388;1259;102247;-81
2024/03/07 04:14:35;;;;;;;37.70;20.30;;;;;;;-0.61;93.71;101701.42;106220;1260;100283;-81
2024/03/07 04:17:21;;;;;;;35.90;18.50;;;;;;;-0.62;93.80;101698.48;106181;1260;97927;-82
2024/03/07 04:20:07;;;;;;;36.50;19.60;;;;;;;-0.64;93.96;101696.48;106098;1260;98055;-81
2024/03/07 04:22:53;;;;;;;37.00;19.00;;;;;;;-0.67;93.95;101698.98;106253;1260;97957;-81
2024/03/07 04:25:39;;;;;;;37.60;20.30;;;;;;;-0.71;94.15;101703.92;106334;1264;101485;-81
2024/03/07 04:28:25;;;;;;;36.50;19.80;;;;;;;-0.75;94.31;101704.50;106318;1260;99768;-80
2024/03/07 04:31:10;;;;;;;36.60;19.60;;;;;;;-0.76;94.45;101705.96;106326;1260;98419;-81
2024/03/07 04:33:56;;;;;;;33.20;18.50;;;;;;;-0.77;94.61;101702.84;106294;1259;97961;-82
2024/03/07 04:36:41;;;;;;;38.50;18.40;;;;;;;-0.76;94.71;101699.63;106315;1259;97992;-82
2024/03/07 04:39:32;;;;;;;33.40;18.80;;;;;;;-0.75;94.84;101694.86;106311;1260;102630;-81
2024/03/07 04:42:17;;;;;;;38.00;17.80;;;;;;;-0.76;94.80;101697.19;106230;1259;99049;-81
2024/03/07 04:45:05;;;;;;;34.20;18.60;;;;;;;-0.77;94.86;101701.66;106225;1263;97972;-81
2024/03/07 04:47:51;;;;;;;33.90;17.50;;;;;;;-0.80;95.00;101701.77;106270;1260;97966;-81
2024/03/07 04:50:37;;;;;;;35.70;18.90;;;;;;;-0.80;94.95;101701.46;106274;1259;97844;-81
2024/03/07 04:53:24;;;;;;;34.10;18.10;;;;;;;-0.79;95.12;101702.97;106235;1260;103539;-81
2024/03/07 04:56:10;;;;;;;37.20;19.60;;;;;;;-0.78;95.15;101703.64;106152;1259;99956;-81
2024/03/07 04:58:56;;;;;;;34.90;17.80;;;;;;;-0.78;95.25;101706.07;106306;1260;97757;-80
2024/03/07 05:01:43;;;;;;;36.30;18.40;;;;;;;-0.76;95.44;101706.67;106438;1260;97761;-82
2024/03/07 05:04:30;;;;;;;35.70;18.80;;;;;;;-0.76;95.51;101708.40;106206;1264;97983;-81
2024/03/07 05:07:16;;;;;;;36.80;20.40;;;;;;;-0.77;95.48;101712.14;106153;1260;101320;-81
2024/03/07 05:10:04;;;;;;;35.60;18.20;;;;;;;-0.80;95.54;101716.33;106311;1262;99254;-81
2024/03/07 05:12:50;;;;;;;31.10;17.20;;;;;;;-0.83;95.69;101719.48;106259;1260;97980;-81
2024/03/07 05:15:36;;;;;;;36.30;18.70;;;;;;;-0.83;95.72;101721.11;106287;1259;97931;-80
2024/03/07 05:18:22;;;;;;;42.40;20.80;;;;;;;-0.85;95.75;101724.39;106277;1260;98461;-80
2024/03/07 05:24:12;;;;;;;37.20;18.20;;;;;;;-0.87;96.02;101726.41;106423;1265;99105;-81
2024/03/07 05:26:58;;;;;;;32.90;18.00;;;;;;;-0.89;96.19;101729.52;106293;1260;107476;-80
2024/03/07 05:29:44;;;;;;;36.60;18.70;;;;;;;-0.91;96.21;101732.77;106278;1259;97977;-81
2024/03/07 05:32:31;;;;;;;35.80;19.40;;;;;;;-0.92;96.41;101733.86;106314;1260;97985;-81
2024/03/07 05:35:17;;;;;;;35.50;18.90;;;;;;;-0.92;96.48;101733.02;106276;1261;101432;-80
2024/03/07 05:38:04;;;;;;;32.60;17.70;;;;;;;-0.92;96.48;101736.48;106215;1260;100402;-81
2024/03/07 05:40:50;;;;;;;35.00;17.80;;;;;;;-0.92;96.67;101738.62;106261;1262;98386;-81
2024/03/07 05:43:35;;;;;;;39.50;20.50;;;;;;;-0.91;96.77;101742.09;106321;1264;97960;-82
2024/03/07 05:46:21;;;;;;;34.10;18.80;;;;;;;-0.89;96.93;101741.26;106211;1264;97922;-81
2024/03/07 05:49:10;;;;;;;40.60;19.20;;;;;;;-0.88;97.00;101741.89;106255;1259;102069;-80
2024/03/07 05:51:55;;;;;;;34.60;17.80;;;;;;;-0.88;96.96;101742.21;106200;1260;99086;-80
2024/03/07 05:54:43;;;;;;;33.40;17.50;;;;;;;-0.88;97.07;101742.74;106195;1261;97841;-81
2024/03/07 05:57:29;;;;;;;35.90;18.50;;;;;;;-0.88;97.14;101746.97;106304;1259;97887;-81
2024/03/07 06:00:15;;;;;;;36.10;17.80;;;;;;;-0.87;97.21;101745.36;106294;1264;98053;-80
2024/03/07 06:03:01;;;;;;;34.20;18.30;;;;;;;-0.86;97.33;101744.24;106347;1259;102118;-81
2024/03/07 06:05:51;;;;;;;35.90;20.70;;;;;;;-0.85;97.47;101750.66;106239;1260;100350;-82
2024/03/07 06:08:38;;;;;;;35.40;17.60;;;;;;;-0.81;97.64;101751.99;106246;1261;99110;-81
2024/03/07 06:11:23;;;;;;;40.60;20.80;;;;;;;-0.76;97.65;101750.68;106199;1260;97861;-81
2024/03/07 06:14:13;;;;;;;33.80;18.20;;;;;;;-0.72;97.68;101753.80;106295;1260;98343;-80
2024/03/07 06:17:00;;;;;;;39.60;17.80;;;;;;;-0.69;97.74;101758.87;106238;1265;101562;-83
2024/03/07 06:19:47;;;;;;;37.80;17.30;;;;;;;-0.66;97.74;101756.59;106151;1264;99322;-77
2024/03/07 06:22:34;;;;;;;36.10;19.00;;;;;;;-0.64;97.66;101761.58;107149;1260;98954;-84
2024/03/07 06:25:33;;;;;;;36.10;19.00;;;;;;;-0.62;97.75;101761.33;106706;1264;97974;-83
2024/03/07 06:28:22;;;;;;;32.90;17.60;;;;;;;-0.59;97.90;101764.99;106312;1260;97792;-83
2024/03/07 06:31:08;;;;;;;33.00;17.90;;;;;;;-0.56;97.80;101763.23;106501;1260;102365;-82
2024/03/07 06:33:53;;;;;;;34.60;18.50;;;;;;;-0.53;97.72;101762.52;106162;1259;99218;-83
2024/03/07 06:36:40;;;;;;;39.40;18.60;;;;;;;-0.50;97.89;101766.36;105863;1260;97950;-82
2024/03/07 06:39:25;;;;;;;38.60;18.00;;;;;;;-0.45;98.01;101767.84;105974;1259;97932;-83
2024/03/07 06:42:12;;;;;;;32.10;17.00;;;;;;;-0.41;97.86;101766.38;105889;1264;98064;-83
2024/03/07 06:44:57;;;;;;;33.50;17.70;;;;;;;-0.37;97.73;101770.71;105817;1261;101248;-82
2024/03/07 06:47:43;;;;;;;35.10;17.40;;;;;;;-0.34;97.77;101769.11;106038;1259;99286;-82
2024/03/07 06:50:29;;;;;;;33.70;18.50;;;;;;;-0.28;97.79;101767.52;105993;1260;98062;-85
2024/03/07 06:53:15;;;;;;;34.30;17.50;;;;;;;-0.22;97.60;101771.23;106219;1263;97998;-84
2024/03/07 06:56:01;;;;;;;31.20;17.20;;;;;;;-0.17;97.46;101771.96;106010;1260;97849;-84
2024/03/07 06:58:52;;;;;;;33.10;16.90;;;;;;;-0.11;97.25;101771.44;105914;1264;101419;-84
2024/03/07 07:01:42;;;;;;;29.50;16.60;;;;;;;-0.05;97.23;101773.02;105584;1263;101454;-83
2024/03/07 07:04:38;;;;;;;32.20;17.20;;;;;;;0.02;97.09;101772.95;105893;1259;98043;-85
2024/03/07 07:07:24;;;;;;;27.40;15.20;;;;;;;0.09;96.75;101772.36;105873;1265;97942;-84
2024/03/07 07:10:17;;;;;;;28.70;15.30;;;;;;;0.16;96.50;101770.55;106018;1264;98055;-84
2024/03/07 07:13:04;;;;;;;32.80;14.90;;;;;;;0.23;96.33;101771.85;105934;1260;101392;-82
2024/03/07 07:15:50;;;;;;;27.20;14.80;;;;;;;0.31;96.17;101774.34;106255;1260;100404;-83
2024/03/07 07:18:36;;;;;;;24.50;14.00;;;;;;;0.39;96.03;101775.42;105960;1260;99052;-83
2024/03/07 07:21:23;;;;;;;29.40;16.00;;;;;;;0.48;95.86;101767.30;105762;1261;99334;-82
2024/03/07 07:24:09;;;;;;;30.90;15.90;;;;;;;0.57;95.81;101767.98;105841;1263;98641;-82
2024/03/07 07:26:55;;;;;;;30.40;15.30;;;;;;;0.67;95.69;101771.60;106083;1264;101955;-85
2024/03/07 07:29:41;;;;;;;28.80;15.20;;;;;;;0.75;95.30;101772.09;106015;1260;100115;-82
2024/03/07 07:32:27;;;;;;;25.00;14.70;;;;;;;0.85;95.21;101774.64;105872;1259;97908;-83
2024/03/07 07:35:14;;;;;;;34.50;15.40;;;;;;;0.95;94.69;101777.23;106106;1259;97795;-86
2024/03/07 07:38:01;;;;;;;24.80;13.80;;;;;;;1.01;94.16;101776.45;106136;1260;98061;-82
2024/03/07 07:40:47;;;;;;;24.60;14.50;;;;;;;1.07;93.99;101775.36;106262;1259;103903;-78
2024/03/07 07:43:33;;;;;;;23.40;14.00;;;;;;;1.15;93.82;101778.55;105854;1259;99133;-78
2024/03/07 07:46:20;;;;;;;24.20;14.10;;;;;;;1.23;93.56;101779.12;105723;1261;99060;-79
2024/03/07 07:49:06;;;;;;;22.90;13.30;;;;;;;1.32;93.70;101783.92;105486;1261;97961;-77
2024/03/07 07:51:53;;;;;;;23.90;13.30;;;;;;;1.40;93.30;101780.05;105434;1261;99232;-79
2024/03/07 07:54:42;;;;;;;22.50;12.00;;;;;;;1.48;92.92;101780.95;105315;1264;101523;-78
2024/03/07 07:57:28;;;;;;;26.80;13.60;;;;;;;1.56;92.59;101781.47;105375;1259;100743;-78
2024/03/07 08:00:25;;;;;;;19.10;12.10;;;;;;;1.66;92.54;101781.20;105225;1260;99035;-77
2024/03/07 08:03:11;;;;;;;24.40;13.20;;;;;;;1.75;92.32;101781.10;105263;1259;97878;-76
2024/03/07 08:05:57;;;;;;;23.40;13.20;;;;;;;1.84;91.49;101781.04;105617;1259;98027;-77
2024/03/07 08:08:43;;;;;;;20.70;11.70;;;;;;;1.91;91.42;101778.96;105506;1260;102392;-77
2024/03/07 08:11:28;;;;;;;19.60;11.20;;;;;;;1.98;90.73;101778.69;105462;1260;99165;-77
2024/03/07 08:14:14;;;;;;;19.40;11.20;;;;;;;2.03;90.48;101775.11;105332;1262;98447;-78
2024/03/07 08:16:59;;;;;;;17.40;10.60;;;;;;;2.11;90.38;101772.61;105339;1260;97936;-77
2024/03/07 08:19:46;;;;;;;20.50;11.70;;;;;;;2.18;89.68;101772.84;105318;1264;98416;-77
2024/03/07 08:22:34;;;;;;;20.20;10.50;;;;;;;2.24;89.03;101772.61;105162;1264;103516;-77
2024/03/07 08:25:22;;;;;;;17.40;9.90;;;;;;;2.31;88.88;101768.45;105541;1259;99223;-78
2024/03/07 08:28:09;;;;;;;14.10;8.70;;;;;;;2.38;88.05;101764.60;105453;1265;98172;-78
2024/03/07 08:30:54;;;;;;;16.00;9.20;;;;;;;2.44;87.35;101765.09;105260;1265;97986;-78
2024/03/07 08:33:40;;;;;;;14.80;9.70;;;;;;;2.52;87.59;101765.41;105285;1260;98735;-77
2024/03/07 08:36:26;;;;;;;15.60;9.20;;;;;;;2.61;87.27;101766.69;105284;1259;101382;-77
2024/03/07 08:39:13;;;;;;;16.90;8.30;;;;;;;2.68;86.13;101761.09;105834;1263;99862;-78
2024/03/07 08:41:59;;;;;;;12.20;7.90;;;;;;;2.74;85.84;101763.83;105229;1259;98841;-78
2024/03/07 08:44:45;;;;;;;12.70;8.80;;;;;;;2.80;84.62;101764.81;105430;1259;98846;-78
2024/03/07 08:47:35;;;;;;;14.30;9.00;;;;;;;2.84;84.46;101761.88;105355;1264;97981;-78
2024/03/07 08:50:20;;;;;;;15.10;8.50;;;;;;;2.92;83.89;101755.12;105563;1259;101394;-77
2024/03/07 08:53:07;;;;;;;14.50;8.40;;;;;;;2.97;83.17;101754.88;105304;1264;100418;-77
2024/03/07 08:55:52;;;;;;;13.60;7.40;;;;;;;3.05;83.30;101753.10;105269;1259;99024;-76
2024/03/07 08:58:38;;;;;;;15.60;8.80;;;;;;;3.12;82.69;101750.61;105234;1264;97962;-76
2024/03/07 09:01:23;;;;;;;15.50;8.70;;;;;;;3.17;82.03;101750.47;105520;1261;97996;-83
2024/03/07 09:04:11;;;;;;;13.50;7.20;;;;;;;3.21;81.43;101750.52;106004;1260;103503;-85
2024/03/07 09:06:58;;;;;;;14.80;8.30;;;;;;;3.30;81.92;101752.50;106473;1260;99047;-88
2024/03/07 09:09:45;;;;;;;13.10;8.00;;;;;;;3.38;80.84;101752.92;106654;1260;98010;-90
2024/03/07 09:12:31;;;;;;;13.30;7.80;;;;;;;3.46;80.55;101755.57;105928;1268;97910;-86
2024/03/07 09:15:18;;;;;;;11.30;6.90;;;;;;;3.52;80.13;101749.98;106028;1259;99576;-83
2024/03/07 09:18:05;;;;;;;10.80;7.00;;;;;;;3.59;79.86;101751.17;106227;1260;102364;-84
2024/03/07 09:20:52;;;;;;;13.80;8.60;;;;;;;3.65;79.04;101748.66;105826;1264;100469;-83
2024/03/07 09:23:38;;;;;;;12.30;7.90;;;;;;;3.70;78.90;101741.03;106067;1265;99048;-86
2024/03/07 09:26:23;;;;;;;15.60;8.20;;;;;;;3.79;79.59;101741.02;106339;1259;97988;-77
2024/03/07 09:29:10;;;;;;;12.40;7.70;;;;;;;3.85;78.74;101739.80;105685;1264;98597;-77
2024/03/07 09:31:57;;;;;;;10.30;6.80;;;;;;;3.92;79.29;101738.23;106244;1259;101496;-78
2024/03/07 09:34:43;;;;;;;11.50;7.50;;;;;;;4.01;78.54;101742.20;106136;1264;99140;-78
2024/03/07 09:37:28;;;;;;;10.90;6.90;;;;;;;4.06;77.79;101741.11;105831;1264;99486;-78
2024/03/07 09:40:14;;;;;;;16.00;8.60;;;;;;;4.10;77.43;101743.80;105825;1263;97983;-78
2024/03/07 09:43:00;;;;;;;14.10;7.50;;;;;;;4.15;77.27;101742.34;105651;1265;97989;-78
2024/03/07 09:45:47;;;;;;;11.10;6.90;;;;;;;4.20;76.53;101741.79;105710;1264;101294;-77
2024/03/07 09:48:34;;;;;;;13.40;7.90;;;;;;;4.22;75.96;101741.75;105825;1263;99095;-77
2024/03/07 09:51:21;;;;;;;11.80;7.60;;;;;;;4.26;75.63;101736.50;105695;1260;99238;-77
2024/03/07 09:54:08;;;;;;;11.50;6.80;;;;;;;4.32;75.50;101742.07;105424;1264;97955;-84
2024/03/07 09:56:57;;;;;;;12.30;7.70;;;;;;;4.36;75.67;101738.20;105921;1259;98401;-77
2024/03/07 09:59:46;;;;;;;12.80;7.70;;;;;;;4.41;75.60;101737.09;105535;1259;101388;-78
2024/03/07 10:02:36;;;;;;;14.10;8.00;;;;;;;4.48;76.19;101737.80;105581;1261;99911;-80
2024/03/07 10:05:26;;;;;;;14.30;8.50;;;;;;;4.55;75.92;101735.94;105982;1260;99165;-78
2024/03/07 10:08:13;;;;;;;11.60;7.60;;;;;;;4.63;75.63;101737.42;105692;1265;97947;-78
2024/03/07 10:11:00;;;;;;;12.90;7.40;;;;;;;4.70;75.70;101733.54;105471;1262;98047;-85
2024/03/07 10:13:49;;;;;;;12.20;6.60;;;;;;;4.76;74.93;101732.02;105982;1259;102903;-82
2024/03/07 10:16:35;;;;;;;11.20;6.40;;;;;;;4.77;74.54;101731.19;106128;1259;99240;-85
2024/03/07 10:19:21;;;;;;;11.20;6.60;;;;;;;4.81;74.49;101734.25;105929;1259;98024;-83
2024/03/07 10:22:07;;;;;;;11.90;6.50;;;;;;;4.86;74.34;101733.67;106124;1260;98068;-83
2024/03/07 10:24:57;;;;;;;11.30;6.70;;;;;;;4.92;74.15;101730.35;105379;1259;97942;-84
2024/03/07 10:27:44;;;;;;;13.20;7.00;;;;;;;4.95;73.52;101727.98;106171;1260;103172;-79
2024/03/07 10:30:29;;;;;;;12.70;6.70;;;;;;;4.98;73.24;101723.17;105876;1263;99997;-78
2024/03/07 10:33:16;;;;;;;10.10;6.60;;;;;;;5.01;73.41;101727.86;105495;1264;98675;-85
2024/03/07 10:36:03;;;;;;;9.90;6.10;;;;;;;5.07;72.94;101729.08;105990;1263;97945;-83
2024/03/07 10:38:49;;;;;;;10.50;5.90;;;;;;;5.11;72.31;101722.06;106218;1259;98494;-86
2024/03/07 10:41:36;;;;;;;11.20;6.20;;;;;;;5.16;72.33;101721.31;105997;1260;102097;-84
2024/03/07 10:44:26;;;;;;;11.40;7.10;;;;;;;5.23;72.91;101722.80;105827;1259;100879;-84
2024/03/07 10:47:15;;;;;;;10.30;6.80;;;;;;;5.31;72.37;101720.36;105755;1259;99062;-85
2024/03/07 10:50:14;;;;;;;9.60;6.10;;;;;;;5.36;72.05;101718.23;105920;1259;97888;-85
2024/03/07 10:53:19;;;;;;;11.10;6.60;;;;;;;5.42;72.35;101724.23;105890;1259;96848;-81
2024/03/07 10:56:41;;;;;;;11.40;7.00;;;;;;;5.49;71.70;101719.23;105943;1264;102942;-81
2024/03/07 10:59:30;;;;;;;8.80;5.90;;;;;;;5.53;71.56;101716.48;105839;1259;99953;-83
2024/03/07 11:02:37;;;;;;;13.70;6.70;;;;;;;5.59;71.81;101717.20;105868;1259;98400;-80
2024/03/07 11:05:31;;;;;;;8.80;6.00;;;;;;;5.62;70.93;101713.25;106362;1260;99250;-83
2024/03/07 11:08:21;;;;;;;12.80;6.60;;;;;;;5.62;70.36;101711.42;106194;1259;97991;-82
2024/03/07 11:11:06;;;;;;;11.80;6.70;;;;;;;5.60;70.06;101710.55;106344;1259;101525;-80
2024/03/07 11:13:54;;;;;;;9.00;5.90;;;;;;;5.61;70.31;101714.31;105847;1259;100413;-80
2024/03/07 11:16:41;;;;;;;10.20;6.90;;;;;;;5.61;69.50;101712.40;106013;1265;99198;-83
2024/03/07 11:19:29;;;;;;;9.30;6.60;;;;;;;5.61;69.00;101709.61;105882;1259;97989;-81
2024/03/07 11:22:34;;;;;;;11.00;6.80;;;;;;;5.61;69.57;101709.91;106642;1259;97999;-80
2024/03/07 11:25:21;;;;;;;11.10;7.40;;;;;;;5.68;69.85;101707.96;106326;1261;101249;-84
2024/03/07 11:28:06;;;;;;;9.70;6.10;;;;;;;5.68;69.42;101708.48;106107;1260;99196;-83
2024/03/07 11:30:52;;;;;;;12.80;6.70;;;;;;;5.69;68.38;101706.40;105952;1260;97785;-86
2024/03/07 11:33:41;;;;;;;10.00;6.20;;;;;;;5.68;67.99;101704.69;106177;1260;98008;-80
2024/03/07 11:36:44;;;;;;;11.30;6.30;;;;;;;5.69;68.12;101700.22;105281;1260;98438;-77
2024/03/07 11:39:44;;;;;;;9.60;6.70;;;;;;;5.74;68.43;101700.50;105298;1259;101374;-77
2024/03/07 11:42:32;;;;;;;11.50;7.10;;;;;;;5.83;68.62;101700.27;105412;1259;99121;-82
2024/03/07 11:45:27;;;;;;;10.80;6.30;;;;;;;5.91;68.53;101700.84;105818;1265;98989;-85
2024/03/07 11:48:14;;;;;;;10.60;5.80;;;;;;;5.94;68.02;101699.50;105796;1264;97985;-83
2024/03/07 11:51:00;;;;;;;10.50;6.80;;;;;;;6.00;68.72;101694.36;105808;1262;98036;-79
2024/03/07 11:53:47;;;;;;;8.10;5.70;;;;;;;6.08;68.55;101691.57;105635;1264;103124;-83
2024/03/07 11:56:33;;;;;;;10.90;6.40;;;;;;;6.14;67.93;101692.45;105934;1264;100454;-82
2024/03/07 11:59:18;;;;;;;9.90;6.50;;;;;;;6.16;68.00;101690.64;105937;1264;98461;-86
2024/03/07 12:02:04;;;;;;;15.20;6.90;;;;;;;6.22;68.30;101689.42;105979;1259;97973;-85
2024/03/07 12:04:50;;;;;;;12.10;7.10;;;;;;;6.28;67.69;101685.61;105878;1265;98524;-84
2024/03/07 12:07:36;;;;;;;11.70;6.30;;;;;;;6.31;68.05;101679.61;106390;1265;101280;-83
2024/03/07 12:10:24;;;;;;;9.60;6.70;;;;;;;6.36;67.51;101678.83;106213;1259;99184;-88
2024/03/07 12:13:12;;;;;;;12.90;6.70;;;;;;;6.43;67.69;101673.99;106071;1260;98697;-85
2024/03/07 12:15:58;;;;;;;14.10;7.80;;;;;;;6.49;67.08;101670.88;106056;1259;95986;-85
2024/03/07 12:18:44;;;;;;;11.50;6.90;;;;;;;6.56;66.77;101669.81;108099;1259;95717;-85
2024/03/07 12:21:30;;;;;;;10.80;6.20;;;;;;;6.55;66.23;101673.58;105975;1259;102175;-85
2024/03/07 12:24:16;;;;;;;11.70;6.90;;;;;;;6.55;65.65;101671.80;106028;1265;99082;-88
2024/03/07 12:27:12;;;;;;;10.70;6.50;;;;;;;6.53;65.15;101670.20;106399;1265;98032;-77
2024/03/07 12:30:01;;;;;;;11.60;6.60;;;;;;;6.54;65.14;101666.45;105791;1262;97802;-86
2024/03/07 12:32:49;;;;;;;11.10;7.00;;;;;;;6.55;65.17;101667.38;106236;1267;99651;-78
2024/03/07 12:35:35;;;;;;;10.00;6.20;;;;;;;6.57;64.94;101670.20;106119;1265;101978;-79
2024/03/07 12:38:22;;;;;;;9.20;6.10;;;;;;;6.57;64.94;101660.98;106036;1265;99672;-79
2024/03/07 12:41:13;;;;;;;9.80;6.50;;;;;;;6.60;64.97;101664.48;106086;1264;97913;-79